Time,TemperatureF,DewpointF,PressureIn,WindDirection,WindDirectionDegrees,WindSpeedMPH,WindSpeedGustMPH,Humidity,HourlyPrecipIn,Conditions,Clouds,dailyrainin,SoftwareType,DateUTC
2013-12-25 00:01:00,18.3,5.7,30.41,ENE,72,4.5,5.8,57,0.00,,---,0.00,VWS V13.01,2013-12-25 05:01:00,
2013-12-25 00:02:00,18.3,5.7,30.41,ENE,72,3.1,4.5,57,0.00,,---,0.00,VWS V13.01,2013-12-25 05:02:00,
2013-12-25 00:03:00,18.5,5.8,30.41,ENE,72,4.0,4.0,57,0.00,,---,0.00,VWS V13.01,2013-12-25 05:03:00,
2013-12-25 00:04:00,18.5,5.8,30.41,ENE,72,3.6,4.9,57,0.00,,---,0.00,VWS V13.01,2013-12-25 05:04:00,
2013-12-25 00:05:00,18.5,5.8,30.41,ENE,62,5.8,5.8,57,0.00,,---,0.00,VWS V13.01,2013-12-25 05:05:00,
2013-12-25 00:10:00,18.5,5.4,30.41,ENE,68,4.5,4.5,56,0.00,,---,0.00,VWS V13.01,2013-12-25 05:10:00,
2013-12-25 00:15:00,18.7,5.6,30.41,East,91,3.6,5.4,56,0.00,,---,0.00,VWS V13.01,2013-12-25 05:15:00,
2013-12-25 00:16:00,18.7,5.6,30.41,East,91,3.1,4.5,56,0.00,,---,0.00,VWS V13.01,2013-12-25 05:16:00,
2013-12-25 00:21:00,18.9,5.8,30.41,ESE,107,3.6,6.7,56,0.00,,---,0.00,VWS V13.01,2013-12-25 05:21:00,
2013-12-25 00:26:00,18.9,5.8,30.41,East,90,4.0,4.9,56,0.00,,---,0.00,VWS V13.01,2013-12-25 05:26:00,
2013-12-25 00:31:00,18.9,5.8,30.41,East,95,5.4,8.3,56,0.00,,---,0.00,VWS V13.01,2013-12-25 05:31:00,
2013-12-25 00:36:00,18.5,5.4,30.41,South,187,3.1,4.9,56,0.00,,---,0.00,VWS V13.01,2013-12-25 05:36:00,
2013-12-25 00:41:00,18.5,5.4,30.41,East,88,4.9,4.9,56,0.00,,---,0.00,VWS V13.01,2013-12-25 05:41:00,
2013-12-25 00:46:00,18.9,6.2,30.41,SSE,151,3.6,6.9,57,0.00,,---,0.00,VWS V13.01,2013-12-25 05:46:00,
2013-12-25 00:51:00,18.9,6.2,30.41,East,90,4.9,4.9,57,0.00,,---,0.00,VWS V13.01,2013-12-25 05:51:00,
2013-12-25 00:56:00,19.0,6.3,30.41,East,86,5.8,5.8,57,0.00,,---,0.00,VWS V13.01,2013-12-25 05:56:00,
2013-12-25 01:01:00,19.0,5.9,30.41,ESE,115,4.0,6.9,56,0.00,,---,0.00,VWS V13.01,2013-12-25 06:01:00,
2013-12-25 01:06:00,19.0,5.9,30.41,East,100,5.4,6.9,56,0.00,,---,0.00,VWS V13.01,2013-12-25 06:06:00,
2013-12-25 01:11:00,19.0,5.9,30.41,ESE,108,4.0,7.4,56,0.00,,---,0.00,VWS V13.01,2013-12-25 06:11:00,
2013-12-25 01:16:00,19.0,5.9,30.41,ESE,109,4.9,5.4,56,0.00,,---,0.00,VWS V13.01,2013-12-25 06:16:00,
2013-12-25 01:21:00,19.2,6.1,30.41,SE,146,4.0,6.3,56,0.00,,---,0.00,VWS V13.01,2013-12-25 06:21:00,
2013-12-25 01:26:00,19.0,5.9,30.41,SSE,153,5.8,6.9,56,0.00,,---,0.00,VWS V13.01,2013-12-25 06:26:00,
2013-12-25 01:31:00,19.2,6.1,30.41,East,98,4.9,7.4,56,0.00,,---,0.00,VWS V13.01,2013-12-25 06:31:00,
2013-12-25 01:36:00,19.2,6.1,30.41,East,98,5.4,6.3,56,0.00,,---,0.00,VWS V13.01,2013-12-25 06:36:00,
2013-12-25 01:41:00,19.2,6.1,30.38,East,87,6.7,6.7,56,0.00,,---,0.00,VWS V13.01,2013-12-25 06:41:00,
2013-12-25 01:46:00,19.4,6.3,30.38,East,88,6.7,9.6,56,0.00,,---,0.00,VWS V13.01,2013-12-25 06:46:00,
2013-12-25 01:51:00,19.2,6.1,30.38,SE,137,6.7,7.4,56,0.00,,---,0.00,VWS V13.01,2013-12-25 06:51:00,
2013-12-25 01:56:00,19.4,6.3,30.38,ESE,119,6.9,8.3,56,0.00,,---,0.00,VWS V13.01,2013-12-25 06:56:00,
2013-12-25 02:01:00,19.6,6.4,30.38,East,96,5.8,9.2,56,0.00,,---,0.00,VWS V13.01,2013-12-25 07:01:00,
2013-12-25 02:06:00,19.6,6.4,30.38,ESE,118,8.7,8.7,56,0.00,,---,0.00,VWS V13.01,2013-12-25 07:06:00,
2013-12-25 02:11:00,19.8,6.6,30.38,SE,137,5.4,7.8,56,0.00,,---,0.00,VWS V13.01,2013-12-25 07:11:00,
2013-12-25 02:16:00,19.8,6.6,30.38,ESE,108,5.4,10.1,56,0.00,,---,0.00,VWS V13.01,2013-12-25 07:16:00,
2013-12-25 02:21:00,19.9,6.8,30.38,East,94,4.9,6.9,56,0.00,,---,0.00,VWS V13.01,2013-12-25 07:21:00,
2013-12-25 02:26:00,19.9,6.4,30.38,SSE,152,4.9,5.8,55,0.00,,---,0.00,VWS V13.01,2013-12-25 07:26:00,
2013-12-25 02:31:00,19.8,6.2,30.38,SE,126,5.4,7.8,55,0.00,,---,0.00,VWS V13.01,2013-12-25 07:31:00,
2013-12-25 02:36:00,19.8,6.2,30.38,ESE,107,5.4,6.7,55,0.00,,---,0.00,VWS V13.01,2013-12-25 07:36:00,
2013-12-25 02:41:00,19.9,6.4,30.38,SE,144,4.0,6.3,55,0.00,,---,0.00,VWS V13.01,2013-12-25 07:41:00,
2013-12-25 02:46:00,19.9,6.4,30.38,SE,144,6.7,7.4,55,0.00,,---,0.00,VWS V13.01,2013-12-25 07:46:00,
2013-12-25 02:51:00,19.9,6.4,30.38,East,91,6.3,8.3,55,0.00,,---,0.00,VWS V13.01,2013-12-25 07:51:00,
2013-12-25 02:56:00,19.6,6.1,30.38,East,98,5.8,9.2,55,0.00,,---,0.00,VWS V13.01,2013-12-25 07:56:00,
2013-12-25 03:01:00,19.6,6.1,30.38,SSE,154,4.5,5.8,55,0.00,,---,0.00,VWS V13.01,2013-12-25 08:01:00,
2013-12-25 03:06:00,19.8,6.2,30.38,SSE,152,4.9,6.7,55,0.00,,---,0.00,VWS V13.01,2013-12-25 08:06:00,
2013-12-25 03:11:00,19.9,6.4,30.38,ESE,122,4.9,5.8,55,0.00,,---,0.00,VWS V13.01,2013-12-25 08:11:00,
2013-12-25 03:16:00,19.9,6.4,30.38,ESE,105,4.9,6.3,55,0.00,,---,0.00,VWS V13.01,2013-12-25 08:16:00,
2013-12-25 03:21:00,19.9,6.4,30.38,East,91,5.8,6.3,55,0.00,,---,0.00,VWS V13.01,2013-12-25 08:21:00,
2013-12-25 03:26:00,20.1,6.9,30.38,SSE,147,11.0,11.0,56,0.00,,---,0.00,VWS V13.01,2013-12-25 08:26:00,
2013-12-25 03:31:00,20.3,6.7,30.38,ENE,64,7.8,10.1,55,0.00,,---,0.00,VWS V13.01,2013-12-25 08:31:00,
2013-12-25 03:36:00,20.5,6.9,30.38,East,84,4.0,6.9,55,0.00,,---,0.00,VWS V13.01,2013-12-25 08:36:00,
2013-12-25 03:41:00,20.5,6.9,30.35,ESE,112,6.3,9.2,55,0.00,,---,0.00,VWS V13.01,2013-12-25 08:41:00,
2013-12-25 03:46:00,20.5,6.9,30.35,ESE,105,5.8,7.8,55,0.00,,---,0.00,VWS V13.01,2013-12-25 08:46:00,
2013-12-25 03:51:00,20.5,6.9,30.35,East,89,7.4,7.8,55,0.00,,---,0.00,VWS V13.01,2013-12-25 08:51:00,
2013-12-25 03:56:00,20.7,7.1,30.35,ENE,70,6.3,7.8,55,0.00,,---,0.00,VWS V13.01,2013-12-25 08:56:00,
2013-12-25 04:01:00,20.5,6.9,30.35,SSE,148,8.3,10.5,55,0.00,,---,0.00,VWS V13.01,2013-12-25 09:01:00,
2013-12-25 04:06:00,20.5,6.9,30.35,SE,136,6.3,7.8,55,0.00,,---,0.00,VWS V13.01,2013-12-25 09:06:00,
2013-12-25 04:11:00,20.5,6.9,30.35,East,95,4.9,12.1,55,0.00,,---,0.00,VWS V13.01,2013-12-25 09:11:00,
2013-12-25 04:16:00,20.7,7.1,30.35,ENE,78,7.8,9.6,55,0.00,,---,0.00,VWS V13.01,2013-12-25 09:16:00,
2013-12-25 04:21:00,20.7,7.1,30.35,East,90,8.3,9.2,55,0.00,,---,0.00,VWS V13.01,2013-12-25 09:21:00,
2013-12-25 04:26:00,20.7,7.1,30.32,East,88,6.7,6.9,55,0.00,,---,0.00,VWS V13.01,2013-12-25 09:26:00,
2013-12-25 04:31:00,20.8,7.2,30.32,ESE,103,6.3,7.4,55,0.00,,---,0.00,VWS V13.01,2013-12-25 09:31:00,
2013-12-25 04:36:00,20.7,7.1,30.32,ENE,77,8.7,9.2,55,0.00,,---,0.00,VWS V13.01,2013-12-25 09:36:00,
2013-12-25 04:41:00,20.7,6.7,30.32,ESE,116,4.9,8.3,54,0.00,,---,0.00,VWS V13.01,2013-12-25 09:41:00,
2013-12-25 04:46:00,20.7,6.7,30.32,SSE,149,6.3,11.0,54,0.00,,---,0.00,VWS V13.01,2013-12-25 09:46:00,
2013-12-25 04:51:00,20.7,6.7,30.32,SSE,160,6.3,9.2,54,0.00,,---,0.00,VWS V13.01,2013-12-25 09:51:00,
2013-12-25 04:56:00,20.7,6.7,30.29,East,99,6.7,9.6,54,0.00,,---,0.00,VWS V13.01,2013-12-25 09:56:00,
2013-12-25 05:01:00,20.7,6.7,30.29,SSE,161,5.8,6.9,54,0.00,,---,0.00,VWS V13.01,2013-12-25 10:01:00,
2013-12-25 05:06:00,20.8,6.8,30.29,ESE,111,7.4,12.5,54,0.00,,---,0.00,VWS V13.01,2013-12-25 10:06:00,
2013-12-25 05:11:00,20.8,6.8,30.29,ESE,110,5.4,7.4,54,0.00,,---,0.00,VWS V13.01,2013-12-25 10:11:00,
2013-12-25 05:16:00,20.8,6.8,30.29,East,95,6.3,14.8,54,0.00,,---,0.00,VWS V13.01,2013-12-25 10:16:00,
2013-12-25 05:21:00,20.7,6.7,30.29,SSE,156,8.3,10.1,54,0.00,,---,0.00,VWS V13.01,2013-12-25 10:21:00,
2013-12-25 05:26:00,20.7,7.1,30.29,ESE,102,6.7,7.4,55,0.00,,---,0.00,VWS V13.01,2013-12-25 10:26:00,
2013-12-25 05:31:00,20.8,7.2,30.29,ESE,112,4.9,9.2,55,0.00,,---,0.00,VWS V13.01,2013-12-25 10:31:00,
2013-12-25 05:36:00,20.8,7.2,30.29,East,85,6.7,13.4,55,0.00,,---,0.00,VWS V13.01,2013-12-25 10:36:00,
2013-12-25 05:41:00,20.8,6.8,30.29,ESE,116,9.6,15.2,54,0.00,,---,0.00,VWS V13.01,2013-12-25 10:41:00,
2013-12-25 05:46:00,20.8,6.8,30.29,SE,141,5.4,10.1,54,0.00,,---,0.00,VWS V13.01,2013-12-25 10:46:00,
2013-12-25 05:51:00,20.8,6.8,30.29,SE,146,7.4,9.6,54,0.00,,---,0.00,VWS V13.01,2013-12-25 10:51:00,
2013-12-25 05:56:00,21.0,7.4,30.26,ESE,119,7.8,10.5,55,0.00,,---,0.00,VWS V13.01,2013-12-25 10:56:00,
2013-12-25 06:01:00,21.0,7.4,30.26,East,98,4.5,7.4,55,0.00,,---,0.00,VWS V13.01,2013-12-25 11:01:00,
2013-12-25 06:06:00,21.0,7.4,30.26,SE,142,6.9,8.7,55,0.00,,---,0.00,VWS V13.01,2013-12-25 11:06:00,
2013-12-25 06:11:00,20.8,6.8,30.29,SSW,198,6.9,9.2,54,0.00,,---,0.00,VWS V13.01,2013-12-25 11:11:00,
2013-12-25 06:16:00,21.0,7.0,30.29,SE,129,10.1,10.1,54,0.00,,---,0.00,VWS V13.01,2013-12-25 11:16:00,
2013-12-25 06:21:00,21.0,7.4,30.29,ENE,62,8.7,8.7,55,0.00,,---,0.00,VWS V13.01,2013-12-25 11:21:00,
2013-12-25 06:26:00,21.2,7.2,30.29,SE,143,7.4,10.5,54,0.00,,---,0.00,VWS V13.01,2013-12-25 11:26:00,
2013-12-25 06:31:00,21.4,7.3,30.29,SE,135,8.7,9.2,54,0.00,,---,0.00,VWS V13.01,2013-12-25 11:31:00,
2013-12-25 06:36:00,21.6,7.5,30.29,SSE,147,5.4,8.7,54,0.00,,---,0.00,VWS V13.01,2013-12-25 11:36:00,
2013-12-25 06:41:00,21.4,7.3,30.29,ESE,113,7.4,12.1,54,0.00,,---,0.00,VWS V13.01,2013-12-25 11:41:00,
2013-12-25 06:46:00,21.6,7.5,30.29,East,99,8.7,8.7,54,0.00,,---,0.00,VWS V13.01,2013-12-25 11:46:00,
2013-12-25 06:51:00,21.6,7.5,30.29,SSE,160,4.9,9.2,54,0.00,,---,0.00,VWS V13.01,2013-12-25 11:51:00,
2013-12-25 06:56:00,21.6,7.1,30.29,ESE,117,11.6,12.5,53,0.00,,---,0.00,VWS V13.01,2013-12-25 11:56:00,
2013-12-25 07:01:00,21.6,7.1,30.29,SE,129,6.3,9.6,53,0.00,,---,0.00,VWS V13.01,2013-12-25 12:01:00,
2013-12-25 07:06:00,21.6,7.1,30.29,SE,133,6.7,6.7,53,0.00,,---,0.00,VWS V13.01,2013-12-25 12:06:00,
2013-12-25 07:11:00,21.7,7.3,30.29,ESE,123,6.3,10.5,53,0.00,,---,0.00,VWS V13.01,2013-12-25 12:11:00,
2013-12-25 07:16:00,21.7,7.3,30.29,South,177,5.8,8.7,53,0.00,,---,0.00,VWS V13.01,2013-12-25 12:16:00,
2013-12-25 07:21:00,21.9,7.4,30.29,South,185,4.0,6.9,53,0.00,,---,0.00,VWS V13.01,2013-12-25 12:21:00,
2013-12-25 07:26:00,21.9,7.4,30.29,SE,142,5.8,10.1,53,0.00,,---,0.00,VWS V13.01,2013-12-25 12:26:00,
2013-12-25 07:31:00,21.9,7.4,30.29,ESE,120,6.7,8.7,53,0.00,,---,0.00,VWS V13.01,2013-12-25 12:31:00,
2013-12-25 07:36:00,21.9,7.4,30.29,SE,126,4.5,8.3,53,0.00,,---,0.00,VWS V13.01,2013-12-25 12:36:00,
2013-12-25 07:41:00,21.9,7.4,30.26,SSE,156,5.8,6.9,53,0.00,,---,0.00,VWS V13.01,2013-12-25 12:41:00,
2013-12-25 07:46:00,21.9,7.4,30.26,SSE,163,8.3,8.3,53,0.00,,---,0.00,VWS V13.01,2013-12-25 12:46:00,
2013-12-25 07:51:00,21.7,7.3,30.26,South,170,6.9,12.1,53,0.00,,---,0.00,VWS V13.01,2013-12-25 12:51:00,
2013-12-25 07:56:00,21.7,7.7,30.26,ESE,103,8.7,8.7,54,0.00,,---,0.00,VWS V13.01,2013-12-25 12:56:00,
2013-12-25 08:01:00,22.1,8.0,30.26,SE,137,7.4,11.2,54,0.00,,---,0.00,VWS V13.01,2013-12-25 13:01:00,
2013-12-25 08:06:00,21.9,8.2,30.26,ENE,70,4.5,8.7,55,0.00,,---,0.00,VWS V13.01,2013-12-25 13:06:00,
2013-12-25 08:11:00,22.1,8.8,30.26,South,189,4.0,5.4,56,0.00,,---,0.00,VWS V13.01,2013-12-25 13:11:00,
2013-12-25 08:16:00,21.9,8.6,30.26,SSE,152,4.9,8.3,56,0.00,,---,0.00,VWS V13.01,2013-12-25 13:16:00,
2013-12-25 08:21:00,21.7,8.9,30.26,South,169,4.5,7.8,57,0.00,,---,0.00,VWS V13.01,2013-12-25 13:21:00,
2013-12-25 08:26:00,21.7,8.9,30.26,ESE,123,8.7,8.7,57,0.00,,---,0.00,VWS V13.01,2013-12-25 13:26:00,
2013-12-25 08:31:00,21.7,8.9,30.26,SE,124,8.7,8.7,57,0.00,,---,0.00,VWS V13.01,2013-12-25 13:31:00,
2013-12-25 08:36:00,21.9,9.0,30.26,ESE,112,6.9,8.7,57,0.00,,---,0.00,VWS V13.01,2013-12-25 13:36:00,
2013-12-25 08:41:00,21.7,8.5,30.26,SSE,148,10.5,11.0,56,0.00,,---,0.00,VWS V13.01,2013-12-25 13:41:00,
2013-12-25 08:46:00,21.9,8.6,30.26,South,186,5.4,8.7,56,0.00,,---,0.00,VWS V13.01,2013-12-25 13:46:00,
2013-12-25 08:52:00,21.9,9.0,30.26,SE,136,7.8,9.6,57,0.00,,---,0.00,VWS V13.01,2013-12-25 13:52:00,
2013-12-25 08:57:00,21.9,9.0,30.26,SE,134,6.3,11.2,57,0.00,,---,0.00,VWS V13.01,2013-12-25 13:57:00,
2013-12-25 09:02:00,21.9,9.4,30.26,SE,145,9.6,10.5,58,0.00,,---,0.00,VWS V13.01,2013-12-25 14:02:00,
2013-12-25 09:07:00,21.9,10.2,30.26,ESE,108,4.9,9.6,60,0.00,,---,0.00,VWS V13.01,2013-12-25 14:07:00,
2013-12-25 09:12:00,21.7,10.7,30.26,SSE,158,5.4,6.7,62,0.00,,---,0.00,VWS V13.01,2013-12-25 14:12:00,
2013-12-25 09:17:00,21.7,11.4,30.26,South,170,4.0,6.3,64,0.00,,---,0.00,VWS V13.01,2013-12-25 14:17:00,
2013-12-25 09:22:00,21.9,12.0,30.26,SE,138,5.8,8.7,65,0.00,,---,0.00,VWS V13.01,2013-12-25 14:22:00,
2013-12-25 09:27:00,22.3,12.7,30.26,SSE,156,5.8,8.7,66,0.00,,---,0.00,VWS V13.01,2013-12-25 14:27:00,
2013-12-25 09:32:00,22.3,13.0,30.26,SSE,149,8.3,9.6,67,0.00,,---,0.00,VWS V13.01,2013-12-25 14:32:00,
2013-12-25 09:37:00,22.3,13.0,30.26,SSE,154,5.4,6.9,67,0.00,,---,0.00,VWS V13.01,2013-12-25 14:37:00,
2013-12-25 09:42:00,22.6,13.7,30.26,South,169,7.8,7.8,68,0.00,,---,0.00,VWS V13.01,2013-12-25 14:42:00,
2013-12-25 09:47:00,22.8,13.9,30.26,SE,145,9.2,9.6,68,0.00,,---,0.00,VWS V13.01,2013-12-25 14:47:00,
2013-12-25 09:52:00,22.8,13.9,30.26,South,169,4.5,6.9,68,0.00,,---,0.00,VWS V13.01,2013-12-25 14:52:00,
2013-12-25 09:57:00,23.0,14.0,30.26,SE,140,4.0,7.8,68,0.00,,---,0.00,VWS V13.01,2013-12-25 14:57:00,
2013-12-25 10:02:00,22.6,13.4,30.26,South,172,7.4,8.7,67,0.00,,---,0.00,VWS V13.01,2013-12-25 15:02:00,
2013-12-25 10:07:00,22.8,13.5,30.26,South,172,6.3,7.4,67,0.00,,---,0.00,VWS V13.01,2013-12-25 15:07:00,
2013-12-25 10:12:00,22.6,13.4,30.26,SSW,196,7.4,7.8,67,0.00,,---,0.00,VWS V13.01,2013-12-25 15:12:00,
2013-12-25 10:17:00,22.6,13.4,30.26,SSW,195,5.4,9.2,67,0.00,,---,0.00,VWS V13.01,2013-12-25 15:17:00,
2013-12-25 10:22:00,23.0,13.7,30.26,SE,128,9.2,9.2,67,0.00,,---,0.00,VWS V13.01,2013-12-25 15:22:00,
2013-12-25 10:27:00,23.0,13.7,30.26,SSE,167,6.7,8.7,67,0.00,,---,0.00,VWS V13.01,2013-12-25 15:27:00,
2013-12-25 10:32:00,23.2,13.5,30.26,South,175,5.4,11.2,66,0.00,,---,0.00,VWS V13.01,2013-12-25 15:32:00,
2013-12-25 10:37:00,23.2,13.2,30.26,SSE,164,7.4,10.1,65,0.00,,---,0.00,VWS V13.01,2013-12-25 15:37:00,
2013-12-25 10:42:00,23.2,12.8,30.26,South,188,6.7,10.5,64,0.00,,---,0.00,VWS V13.01,2013-12-25 15:42:00,
2013-12-25 10:47:00,23.5,13.2,30.26,SSE,149,8.3,11.0,64,0.00,,---,0.00,VWS V13.01,2013-12-25 15:47:00,
2013-12-25 10:52:00,23.5,13.2,30.26,SSE,159,5.4,11.6,64,0.00,,---,0.00,VWS V13.01,2013-12-25 15:52:00,
2013-12-25 10:57:00,23.5,12.8,30.26,SE,132,8.7,9.2,63,0.00,,---,0.00,VWS V13.01,2013-12-25 15:57:00,
2013-12-25 11:02:00,23.4,12.3,30.26,South,190,8.3,10.5,62,0.00,,---,0.00,VWS V13.01,2013-12-25 16:02:00,
2013-12-25 11:07:00,23.7,12.6,30.26,SSW,192,7.8,11.2,62,0.00,,---,0.00,VWS V13.01,2013-12-25 16:07:00,
2013-12-25 11:12:00,23.7,12.6,30.26,South,185,7.4,12.1,62,0.00,,---,0.00,VWS V13.01,2013-12-25 16:12:00,
2013-12-25 11:17:00,23.7,12.2,30.26,SSE,156,6.3,12.1,61,0.00,,---,0.00,VWS V13.01,2013-12-25 16:17:00,
2013-12-25 11:22:00,23.9,12.4,30.23,South,169,4.9,8.3,61,0.00,,---,0.00,VWS V13.01,2013-12-25 16:22:00,
2013-12-25 11:27:00,23.7,11.9,30.23,South,177,10.1,13.4,60,0.00,,---,0.00,VWS V13.01,2013-12-25 16:27:00,
2013-12-25 11:32:00,23.5,11.7,30.23,SSE,164,6.9,11.2,60,0.00,,---,0.00,VWS V13.01,2013-12-25 16:32:00,
2013-12-25 11:37:00,23.7,12.2,30.23,SE,131,6.3,12.5,61,0.00,,---,0.00,VWS V13.01,2013-12-25 16:37:00,
2013-12-25 11:42:00,23.9,12.4,30.23,South,184,11.2,15.9,61,0.00,,---,0.00,VWS V13.01,2013-12-25 16:42:00,
2013-12-25 11:47:00,23.9,12.1,30.23,South,189,10.5,11.6,60,0.00,,---,0.00,VWS V13.01,2013-12-25 16:47:00,
2013-12-25 11:52:00,24.1,12.2,30.23,South,187,9.2,13.9,60,0.00,,---,0.00,VWS V13.01,2013-12-25 16:52:00,
2013-12-25 11:57:00,23.9,12.1,30.23,South,191,13.4,13.4,60,0.00,,---,0.00,VWS V13.01,2013-12-25 16:57:00,
2013-12-25 12:02:00,23.9,12.1,30.23,SSE,159,10.1,12.5,60,0.00,,---,0.00,VWS V13.01,2013-12-25 17:02:00,
2013-12-25 12:07:00,23.9,11.7,30.23,SSW,193,10.5,10.5,59,0.00,,---,0.00,VWS V13.01,2013-12-25 17:07:00,
2013-12-25 12:12:00,24.1,12.2,30.23,SE,130,8.7,9.6,60,0.00,,---,0.00,VWS V13.01,2013-12-25 17:12:00,
2013-12-25 12:17:00,24.1,12.2,30.23,SSW,197,11.2,12.5,60,0.00,,---,0.00,VWS V13.01,2013-12-25 17:17:00,
2013-12-25 12:22:00,24.1,11.8,30.20,SSW,201,11.2,11.6,59,0.00,,---,0.00,VWS V13.01,2013-12-25 17:22:00,
2013-12-25 12:27:00,24.3,12.4,30.20,SE,144,8.7,11.0,60,0.00,,---,0.00,VWS V13.01,2013-12-25 17:27:00,
2013-12-25 12:33:00,24.4,12.2,30.20,South,182,9.6,11.2,59,0.00,,---,0.00,VWS V13.01,2013-12-25 17:33:00,
2013-12-25 12:39:00,24.6,12.7,30.20,South,171,10.1,11.2,60,0.00,,---,0.00,VWS V13.01,2013-12-25 17:39:00,
2013-12-25 12:44:00,24.4,12.2,30.20,SSE,159,8.3,11.6,59,0.00,,---,0.00,VWS V13.01,2013-12-25 17:44:00,
2013-12-25 12:49:00,24.6,12.4,30.20,SSE,166,10.5,12.1,59,0.00,,---,0.00,VWS V13.01,2013-12-25 17:49:00,
2013-12-25 12:54:00,24.4,12.2,30.20,SW,233,10.1,11.6,59,0.00,,---,0.00,VWS V13.01,2013-12-25 17:54:00,
2013-12-25 12:59:00,24.4,12.2,30.20,South,174,10.1,11.6,59,0.00,,---,0.00,VWS V13.01,2013-12-25 17:59:00,
2013-12-25 13:04:00,24.4,12.2,30.20,SE,125,5.8,9.2,59,0.00,,---,0.00,VWS V13.01,2013-12-25 18:04:00,
2013-12-25 13:09:00,24.4,12.2,30.20,South,188,12.1,13.4,59,0.00,,---,0.00,VWS V13.01,2013-12-25 18:09:00,
2013-12-25 13:15:00,24.4,12.2,30.20,South,177,9.2,11.6,59,0.00,,---,0.00,VWS V13.01,2013-12-25 18:15:00,
2013-12-25 13:20:00,24.4,12.2,30.20,South,188,5.8,9.6,59,0.00,,---,0.00,VWS V13.01,2013-12-25 18:20:00,
2013-12-25 13:25:00,24.6,12.4,30.20,South,175,7.4,8.7,59,0.00,,---,0.00,VWS V13.01,2013-12-25 18:25:00,
2013-12-25 13:30:00,24.6,12.4,30.20,South,191,13.9,15.4,59,0.00,,---,0.00,VWS V13.01,2013-12-25 18:30:00,
2013-12-25 13:35:00,24.4,12.2,30.20,South,185,7.8,10.1,59,0.00,,---,0.00,VWS V13.01,2013-12-25 18:35:00,
2013-12-25 13:40:00,24.6,12.4,30.17,SSW,208,10.5,11.0,59,0.00,,---,0.00,VWS V13.01,2013-12-25 18:40:00,
2013-12-25 13:45:00,24.6,12.7,30.17,SSE,160,9.2,9.6,60,0.00,,---,0.00,VWS V13.01,2013-12-25 18:45:00,
2013-12-25 13:50:00,24.6,12.7,30.17,SSW,193,8.7,11.2,60,0.00,,---,0.00,VWS V13.01,2013-12-25 18:50:00,
2013-12-25 13:55:00,24.6,12.7,30.17,South,183,11.6,11.6,60,0.00,,---,0.00,VWS V13.01,2013-12-25 18:55:00,
2013-12-25 14:00:00,24.6,12.7,30.17,SSW,207,6.3,11.2,60,0.00,,---,0.00,VWS V13.01,2013-12-25 19:00:00,
2013-12-25 14:05:00,24.8,13.3,30.17,SSW,192,9.6,9.6,61,0.00,,---,0.00,VWS V13.01,2013-12-25 19:05:00,
2013-12-25 14:10:00,24.6,12.7,30.17,SSE,151,7.8,10.5,60,0.00,,---,0.00,VWS V13.01,2013-12-25 19:10:00,
2013-12-25 14:15:00,24.6,12.7,30.17,South,188,11.6,11.6,60,0.00,,---,0.00,VWS V13.01,2013-12-25 19:15:00,
2013-12-25 14:20:00,24.6,12.7,30.17,South,187,5.4,11.2,60,0.00,,---,0.00,VWS V13.01,2013-12-25 19:20:00,
2013-12-25 14:26:00,24.6,13.1,30.17,South,190,7.4,11.0,61,0.00,,---,0.00,VWS V13.01,2013-12-25 19:26:00,
2013-12-25 14:31:00,24.6,13.1,30.17,SSW,205,10.1,11.6,61,0.00,,---,0.00,VWS V13.01,2013-12-25 19:31:00,
2013-12-25 14:36:00,24.8,13.3,30.17,SSW,199,5.8,10.5,61,0.00,,---,0.00,VWS V13.01,2013-12-25 19:36:00,
2013-12-25 14:41:00,24.6,13.1,30.17,South,189,9.2,11.0,61,0.00,,---,0.00,VWS V13.01,2013-12-25 19:41:00,
2013-12-25 14:46:00,24.6,13.1,30.17,South,181,8.3,9.6,61,0.00,,---,0.00,VWS V13.01,2013-12-25 19:46:00,
2013-12-25 14:51:00,24.6,13.1,30.17,SSE,149,7.4,12.1,61,0.00,,---,0.00,VWS V13.01,2013-12-25 19:51:00,
2013-12-25 14:57:00,24.8,13.3,30.17,South,176,11.0,11.6,61,0.00,,---,0.00,VWS V13.01,2013-12-25 19:57:00,
2013-12-25 15:02:00,24.8,13.3,30.17,South,181,5.4,9.6,61,0.00,,---,0.00,VWS V13.01,2013-12-25 20:02:00,
2013-12-25 15:07:00,24.8,13.3,30.17,SSW,195,6.9,10.1,61,0.00,,---,0.00,VWS V13.01,2013-12-25 20:07:00,
2013-12-25 15:12:00,24.8,13.3,30.17,SSE,163,4.9,9.2,61,0.00,,---,0.00,VWS V13.01,2013-12-25 20:12:00,
2013-12-25 15:17:00,25.0,13.4,30.17,SW,216,13.4,14.3,61,0.00,,---,0.00,VWS V13.01,2013-12-25 20:17:00,
2013-12-25 15:22:00,24.8,13.3,30.17,SSW,193,11.0,11.0,61,0.00,,---,0.00,VWS V13.01,2013-12-25 20:22:00,
2013-12-25 15:27:00,25.0,13.4,30.17,SSW,204,7.8,9.2,61,0.00,,---,0.00,VWS V13.01,2013-12-25 20:27:00,
2013-12-25 15:32:00,25.2,13.6,30.17,SSW,207,6.9,8.3,61,0.00,,---,0.00,VWS V13.01,2013-12-25 20:32:00,
2013-12-25 15:37:00,25.2,13.6,30.17,South,181,6.9,9.6,61,0.00,,---,0.00,VWS V13.01,2013-12-25 20:37:00,
2013-12-25 15:42:00,25.0,13.4,30.17,SSE,165,11.0,11.0,61,0.00,,---,0.00,VWS V13.01,2013-12-25 20:42:00,
2013-12-25 15:47:00,25.0,13.4,30.17,South,187,5.8,10.1,61,0.00,,---,0.00,VWS V13.01,2013-12-25 20:47:00,
2013-12-25 15:52:00,24.8,13.3,30.17,South,170,4.5,7.4,61,0.00,,---,0.00,VWS V13.01,2013-12-25 20:52:00,
2013-12-25 15:57:00,25.0,13.4,30.17,SSW,195,8.3,8.3,61,0.00,,---,0.00,VWS V13.01,2013-12-25 20:57:00,
2013-12-25 16:02:00,25.0,13.4,30.17,South,190,4.9,8.3,61,0.00,,---,0.00,VWS V13.01,2013-12-25 21:02:00,
2013-12-25 16:07:00,25.0,13.8,30.17,SSW,211,7.4,8.3,62,0.00,,---,0.00,VWS V13.01,2013-12-25 21:07:00,
2013-12-25 16:12:00,25.0,13.8,30.17,SSW,209,4.5,6.9,62,0.00,,---,0.00,VWS V13.01,2013-12-25 21:12:00,
2013-12-25 16:17:00,25.2,14.0,30.17,South,170,5.8,8.3,62,0.00,,---,0.00,VWS V13.01,2013-12-25 21:17:00,
2013-12-25 16:22:00,25.2,14.0,30.17,SSW,192,6.3,7.4,62,0.00,,---,0.00,VWS V13.01,2013-12-25 21:22:00,
2013-12-25 16:27:00,25.2,14.0,30.17,South,188,5.8,6.9,62,0.00,,---,0.00,VWS V13.01,2013-12-25 21:27:00,
2013-12-25 16:32:00,25.2,14.0,30.17,South,170,5.8,7.4,62,0.00,,---,0.00,VWS V13.01,2013-12-25 21:32:00,
2013-12-25 16:37:00,25.2,14.0,30.17,South,173,6.7,6.7,62,0.00,,---,0.00,VWS V13.01,2013-12-25 21:37:00,
2013-12-25 16:42:00,25.3,14.2,30.17,SSE,152,6.3,6.3,62,0.00,,---,0.00,VWS V13.01,2013-12-25 21:42:00,
2013-12-25 16:47:00,25.3,14.5,30.17,South,181,6.7,9.6,63,0.00,,---,0.00,VWS V13.01,2013-12-25 21:47:00,
2013-12-25 16:52:00,25.5,14.3,30.17,South,177,7.4,7.4,62,0.00,,---,0.00,VWS V13.01,2013-12-25 21:52:00,
2013-12-25 16:57:00,25.2,14.0,30.17,SSW,210,2.7,6.7,62,0.00,,---,0.00,VWS V13.01,2013-12-25 21:57:00,
2013-12-25 17:02:00,25.2,14.4,30.17,South,182,4.9,6.3,63,0.00,,---,0.00,VWS V13.01,2013-12-25 22:02:00,
2013-12-25 17:07:00,25.3,14.5,30.17,SSW,193,4.5,6.3,63,0.00,,---,0.00,VWS V13.01,2013-12-25 22:07:00,
2013-12-25 17:12:00,25.5,15.1,30.17,South,191,4.0,6.3,64,0.00,,---,0.00,VWS V13.01,2013-12-25 22:12:00,
2013-12-25 17:17:00,25.5,15.1,30.17,South,172,4.5,5.4,64,0.00,,---,0.00,VWS V13.01,2013-12-25 22:17:00,
2013-12-25 17:23:00,25.7,15.2,30.17,South,180,6.7,6.9,64,0.00,,---,0.00,VWS V13.01,2013-12-25 22:23:00,
2013-12-25 17:29:00,25.5,14.7,30.17,South,176,5.8,6.7,63,0.00,,---,0.00,VWS V13.01,2013-12-25 22:29:00,
2013-12-25 17:34:00,25.5,15.1,30.17,SSE,159,4.0,6.3,64,0.00,,---,0.00,VWS V13.01,2013-12-25 22:34:00,
2013-12-25 17:40:00,25.5,15.1,30.14,South,189,5.4,5.4,64,0.00,,---,0.00,VWS V13.01,2013-12-25 22:40:00,
2013-12-25 17:46:00,25.9,15.4,30.14,SSE,148,3.6,6.3,64,0.00,,---,0.00,VWS V13.01,2013-12-25 22:46:00,
2013-12-25 17:51:00,25.9,15.4,30.14,South,189,6.9,6.9,64,0.00,,---,0.00,VWS V13.01,2013-12-25 22:51:00,
2013-12-25 17:56:00,25.7,15.2,30.14,SSE,168,4.9,4.9,64,0.00,,---,0.00,VWS V13.01,2013-12-25 22:56:00,
2013-12-25 18:01:00,25.9,15.4,30.14,SSE,165,4.5,6.3,64,0.00,,---,0.00,VWS V13.01,2013-12-25 23:01:00,
2013-12-25 18:06:00,25.7,15.2,30.14,SSW,205,3.6,7.4,64,0.00,,---,0.00,VWS V13.01,2013-12-25 23:06:00,
2013-12-25 18:11:00,25.7,15.2,30.14,SSW,196,5.4,6.3,64,0.00,,---,0.00,VWS V13.01,2013-12-25 23:11:00,
2013-12-25 18:16:00,25.7,15.2,30.14,South,191,3.6,5.8,64,0.00,,---,0.00,VWS V13.01,2013-12-25 23:16:00,
2013-12-25 18:21:00,25.5,15.4,30.14,South,187,4.9,7.8,65,0.00,,---,0.00,VWS V13.01,2013-12-25 23:21:00,
2013-12-25 18:26:00,25.5,15.4,30.14,South,187,4.9,4.9,65,0.00,,---,0.00,VWS V13.01,2013-12-25 23:26:00,
2013-12-25 18:31:00,25.7,15.9,30.14,ESE,111,4.5,4.9,66,0.00,,---,0.00,VWS V13.01,2013-12-25 23:31:00,
2013-12-25 18:36:00,26.1,16.6,30.14,SE,144,4.0,6.7,67,0.00,,---,0.00,VWS V13.01,2013-12-25 23:36:00,
2013-12-25 18:41:00,26.2,16.8,30.14,SE,135,4.9,7.4,67,0.00,,---,0.00,VWS V13.01,2013-12-25 23:41:00,
2013-12-25 18:47:00,26.4,17.0,30.14,ESE,108,4.5,6.9,67,0.00,,---,0.00,VWS V13.01,2013-12-25 23:47:00,
2013-12-25 18:52:00,26.2,16.8,30.14,SSE,162,4.5,8.3,67,0.00,,---,0.00,VWS V13.01,2013-12-25 23:52:00,
2013-12-25 18:57:00,26.2,16.8,30.14,SE,128,3.1,6.9,67,0.00,,---,0.00,VWS V13.01,2013-12-25 23:57:00,
2013-12-25 19:02:00,26.2,16.8,30.14,South,185,4.9,4.9,67,0.00,,---,0.00,VWS V13.01,2013-12-26 00:02:00,
2013-12-25 19:07:00,26.2,17.1,30.14,SE,141,6.3,7.4,68,0.00,,---,0.00,VWS V13.01,2013-12-26 00:07:00,
2013-12-25 19:12:00,26.2,17.1,30.14,SE,131,8.3,8.3,68,0.00,,---,0.00,VWS V13.01,2013-12-26 00:12:00,
2013-12-25 19:17:00,26.1,17.0,30.14,South,176,3.6,5.4,68,0.00,,---,0.00,VWS V13.01,2013-12-26 00:17:00,
2013-12-25 19:22:00,26.2,17.1,30.14,South,177,5.8,6.3,68,0.00,,---,0.00,VWS V13.01,2013-12-26 00:22:00,
2013-12-25 19:27:00,26.2,17.1,30.14,East,97,4.5,6.3,68,0.00,,---,0.00,VWS V13.01,2013-12-26 00:27:00,
2013-12-25 19:33:00,26.2,17.5,30.14,SE,142,4.9,5.4,69,0.00,,---,0.00,VWS V13.01,2013-12-26 00:33:00,
2013-12-25 19:38:00,26.2,17.5,30.14,SSW,200,8.3,8.3,69,0.00,,---,0.00,VWS V13.01,2013-12-26 00:38:00,
2013-12-25 19:44:00,26.2,17.5,30.14,ESE,117,3.1,6.7,69,0.00,,---,0.00,VWS V13.01,2013-12-26 00:44:00,
2013-12-25 19:49:00,26.2,17.8,30.14,SE,131,4.9,6.3,70,0.00,,---,0.00,VWS V13.01,2013-12-26 00:49:00,
2013-12-25 19:54:00,26.2,17.5,30.14,SSE,168,6.7,7.8,69,0.00,,---,0.00,VWS V13.01,2013-12-26 00:54:00,
2013-12-25 19:59:00,26.2,17.8,30.14,SE,137,4.9,7.4,70,0.00,,---,0.00,VWS V13.01,2013-12-26 00:59:00,
2013-12-25 20:04:00,26.2,17.8,30.14,SSW,192,5.4,5.4,70,0.00,,---,0.00,VWS V13.01,2013-12-26 01:04:00,
2013-12-25 20:09:00,26.2,17.8,30.14,SE,139,5.4,6.7,70,0.00,,---,0.00,VWS V13.01,2013-12-26 01:09:00,
2013-12-25 20:14:00,26.2,17.8,30.14,SSE,159,7.4,8.7,70,0.00,,---,0.00,VWS V13.01,2013-12-26 01:14:00,
2013-12-25 20:19:00,26.2,17.8,30.14,SSW,199,4.5,10.1,70,0.00,,---,0.00,VWS V13.01,2013-12-26 01:19:00,
2013-12-25 20:24:00,26.1,18.0,30.14,SE,130,5.8,9.6,71,0.00,,---,0.00,VWS V13.01,2013-12-26 01:24:00,
2013-12-25 20:29:00,26.1,18.0,30.14,South,170,6.7,6.7,71,0.00,,---,0.00,VWS V13.01,2013-12-26 01:29:00,
2013-12-25 20:34:00,26.1,18.0,30.14,SSE,154,7.4,7.4,71,0.00,,---,0.00,VWS V13.01,2013-12-26 01:34:00,
2013-12-25 20:39:00,26.1,18.3,30.11,South,186,7.8,9.2,72,0.00,,---,0.00,VWS V13.01,2013-12-26 01:39:00,
2013-12-25 20:44:00,26.2,18.5,30.11,SSE,167,4.9,6.7,72,0.00,,---,0.00,VWS V13.01,2013-12-26 01:44:00,
2013-12-25 20:49:00,26.2,18.8,30.11,SE,145,6.3,6.3,73,0.00,,---,0.00,VWS V13.01,2013-12-26 01:49:00,
2013-12-25 20:54:00,26.2,18.8,30.11,SE,133,5.8,6.3,73,0.00,,---,0.00,VWS V13.01,2013-12-26 01:54:00,
2013-12-25 20:59:00,26.4,19.0,30.11,SSE,150,6.3,6.9,73,0.00,,---,0.00,VWS V13.01,2013-12-26 01:59:00,
2013-12-25 21:04:00,26.2,18.8,30.11,South,187,6.3,7.4,73,0.00,,---,0.00,VWS V13.01,2013-12-26 02:04:00,
2013-12-25 21:09:00,26.2,18.8,30.11,SE,143,9.2,9.6,73,0.00,,---,0.00,VWS V13.01,2013-12-26 02:09:00,
2013-12-25 21:14:00,26.4,19.0,30.11,SE,127,6.3,10.1,73,0.00,,---,0.00,VWS V13.01,2013-12-26 02:14:00,
2013-12-25 21:19:00,26.4,19.0,30.11,SSE,164,5.8,8.3,73,0.00,,---,0.00,VWS V13.01,2013-12-26 02:19:00,
2013-12-25 21:24:00,26.4,19.3,30.11,South,171,5.8,6.3,74,0.00,,---,0.00,VWS V13.01,2013-12-26 02:24:00,
2013-12-25 21:29:00,26.4,19.3,30.11,SSE,167,7.8,9.2,74,0.00,,---,0.00,VWS V13.01,2013-12-26 02:29:00,
2013-12-25 21:34:00,26.4,19.3,30.11,SSE,156,5.8,6.7,74,0.00,,---,0.00,VWS V13.01,2013-12-26 02:34:00,
2013-12-25 21:39:00,26.6,19.4,30.11,SSW,192,5.4,7.4,74,0.00,,---,0.00,VWS V13.01,2013-12-26 02:39:00,
2013-12-25 21:44:00,26.6,19.4,30.11,SSW,192,5.8,7.4,74,0.00,,---,0.00,VWS V13.01,2013-12-26 02:44:00,
2013-12-25 21:49:00,26.6,19.4,30.11,South,185,6.3,6.9,74,0.00,,---,0.00,VWS V13.01,2013-12-26 02:49:00,
2013-12-25 21:54:00,26.6,19.8,30.11,South,184,9.6,9.6,75,0.00,,---,0.00,VWS V13.01,2013-12-26 02:54:00,
2013-12-25 21:59:00,26.6,19.8,30.11,SSW,208,8.3,8.7,75,0.00,,---,0.00,VWS V13.01,2013-12-26 02:59:00,
2013-12-25 22:04:00,26.8,19.9,30.11,SSE,153,4.9,8.7,75,0.00,,---,0.00,VWS V13.01,2013-12-26 03:04:00,
2013-12-25 22:09:00,26.8,20.2,30.11,SSE,162,8.3,9.2,76,0.00,,---,0.00,VWS V13.01,2013-12-26 03:09:00,
2013-12-25 22:14:00,26.8,20.2,30.11,South,191,7.8,7.8,76,0.00,,---,0.00,VWS V13.01,2013-12-26 03:14:00,
2013-12-25 22:19:00,27.0,20.7,30.11,SSE,147,6.7,9.6,77,0.00,,---,0.00,VWS V13.01,2013-12-26 03:19:00,
2013-12-25 22:24:00,27.0,20.7,30.08,South,173,7.4,7.4,77,0.00,,---,0.00,VWS V13.01,2013-12-26 03:24:00,
2013-12-25 22:29:00,27.0,21.0,30.08,South,184,6.9,9.2,78,0.00,,---,0.00,VWS V13.01,2013-12-26 03:29:00,
2013-12-25 22:34:00,27.0,21.0,30.08,SSE,150,6.7,10.5,78,0.00,,---,0.00,VWS V13.01,2013-12-26 03:34:00,
2013-12-25 22:39:00,27.1,21.5,30.08,SE,135,6.3,6.9,79,0.00,,---,0.00,VWS V13.01,2013-12-26 03:39:00,
2013-12-25 22:44:00,27.1,21.5,30.08,SE,135,6.3,7.4,79,0.00,,---,0.00,VWS V13.01,2013-12-26 03:44:00,
2013-12-25 22:49:00,27.1,21.5,30.08,South,176,4.5,5.4,79,0.00,,---,0.00,VWS V13.01,2013-12-26 03:49:00,
2013-12-25 22:54:00,27.3,22.0,30.08,South,189,6.9,8.7,80,0.00,,---,0.00,VWS V13.01,2013-12-26 03:54:00,
2013-12-25 23:00:00,27.3,22.0,30.08,SSW,200,7.4,8.7,80,0.00,,---,0.00,VWS V13.01,2013-12-26 04:00:00,
2013-12-25 23:05:00,27.3,22.0,30.08,SSW,192,4.9,7.4,80,0.00,,---,0.00,VWS V13.01,2013-12-26 04:05:00,
2013-12-25 23:10:00,27.3,22.0,30.08,South,176,4.9,6.9,80,0.00,,---,0.00,VWS V13.01,2013-12-26 04:10:00,
2013-12-25 23:15:00,27.5,22.1,30.08,South,179,7.8,8.7,80,0.00,,---,0.00,VWS V13.01,2013-12-26 04:15:00,
2013-12-25 23:20:00,27.3,22.3,30.08,SE,138,5.8,6.9,81,0.00,,---,0.00,VWS V13.01,2013-12-26 04:20:00,
2013-12-25 23:25:00,27.3,22.3,30.08,SSE,168,4.9,8.3,81,0.00,,---,0.00,VWS V13.01,2013-12-26 04:25:00,
2013-12-25 23:30:00,27.3,22.3,30.08,SSW,195,5.4,6.3,81,0.00,,---,0.00,VWS V13.01,2013-12-26 04:30:00,
2013-12-25 23:35:00,27.5,22.5,30.08,South,182,4.5,6.7,81,0.00,,---,0.00,VWS V13.01,2013-12-26 04:35:00,
2013-12-25 23:40:00,27.5,22.5,30.05,SSW,195,6.9,9.2,81,0.00,,---,0.00,VWS V13.01,2013-12-26 04:40:00,
2013-12-25 23:45:00,27.5,22.5,30.05,SSW,196,5.8,8.7,81,0.00,,---,0.00,VWS V13.01,2013-12-26 04:45:00,
2013-12-25 23:50:00,27.5,22.5,30.05,SSW,208,3.1,6.7,81,0.00,,---,0.00,VWS V13.01,2013-12-26 04:50:00,
2013-12-25 23:55:00,27.5,22.5,30.05,SSW,194,3.6,8.3,81,0.00,,---,0.00,VWS V13.01,2013-12-26 04:55:00,